Hlavní strana
METAR-TAF:

METAR-TAF

Letiště :

Lumberton Municipal Airport

Lumberton, Severní Karolína, Spojené státy americké

zeměpisná šířka: 34-36-26N, zeměpisná délka: 079-03-36W, výška: 38 m

METAR: chybějící

Čas: 09:15 (14:15 UTC)

Předpověď počasí

Zpráva byla vytvořena před 2 hodinami a 55 minutami, v 11:20 UTC
Předpověď platná od 25 v 12 UTC do 26 v 12 UTC
Severovýchodní vítr 3 kt
Viditelnost: 10 km
Oblačno až skoro zataženo ve výšce 25000 ft
Od 25 v 1300 UTC
Východní vítr 4 kt
Viditelnost: 10 km
Oblačno až skoro zataženo ve výšce 4000 ft
Zataženo ve výšce 25000 ft
Od 25 v 1700 UTC
Jihovýchodní vítr 7 kt
Viditelnost: 10 km
Zataženo ve výšce 3500 ft
Od 26 v 0000 UTC
Jihojihovýchodní vítr 4 kt
Viditelnost: 10 km
Oblačno až skoro zataženo ve výšce 4000 ft
Oblačno až skoro zataženo ve výšce 25000 ft

TAF: KLBT 251120Z 2512/2612 05003KT P6SM BKN250 FM251300 08004KT P6SM BKN040 OVC250 FM251700 13007KT P6SM OVC035 FM260000 16004KT P6SM BKN040 BKN250 AMD NOT SKED

Stav a předpovědi počasí z více než 4 000 letišť (zprávy METAR a TAF).

Červené a žluté tečky na mapě představují dostupné meteorologické stanice.

Když kurzor umístíte na tečku, zobrazí se název stanice.

Pak kliknutím zobrazíte stav a předpověď počasí.

Chcete-li změnit mapu, kliknutím na zelené tlačítko se znaménkem +mapu přiblížíte, kliknutím na zelené tlačítko se znaménkem – mapu oddálíte a kliknutím na zelené šipky přejdete na sousední mapy.


METAR-TAF: